Comiso Airport "Vincenzo Magliocco" LICB

Flugplatz Daten

Name: Comiso Airport "Vincenzo Magliocco"

Ident: LICB

Lat: 36,99460102

Long: 14,60718155

Platzhöhe: 623 ft

IataCode: CIY

City: Comiso

Homepage: http://www.aeroportodicomiso.it/

Metar

2022/08/13 18:20
LICB 131820Z AUTO 22006KT 190V250 9999 FEW019/// 26/22 Q1012

Taf

2022/08/13 18:00
TAF LICB 131700Z 1318/1418 26010KT 9999 FEW030
BECMG 1320/1322 VRB05KT
BECMG 1409/1411 25013KT
Gewünschte Webcam nicht vorhanden? Dann fügen Sie eine hinzu. Sie wird dann so schnell wie möglich freigeschaltet
Url: Title: